If you wish to contribute or participate in the discussions about articles you are invited to join SKYbrary as a registered user

 Actions

General Enrique Mosconi Airport

From SKYbrary Wiki

SAST
Airport
ICAO: SAST – IATA: TTG
Summary
Name General Enrique Mosconi Airport
Region South America and Caribbean
Territory Argentina AR.gif
Location General Enrique Mosconi, Salta
Serving Tartagal
Elevation 448.666 m
1,472 ft
1,472 ft448.666 m
Type medium airport
Coordinates 22° 37' 9.00" S, 63° 47' 35.48" W
Runways
Designator Length Width Surface ROPS
1/19 1500 m4,921.26 ft
30 m98.425 ft
ASP /


METAR
Observation SAST 132140Z 27018G30KT 8000 -TS SCT025 FEW040CB OVC045 25/21 Q1006
Station Tartagal Aerodrome
Date/Time 13 October 2019 21:40:00
Wind direction 270°
Wind speed 18 kts
Lowest cloud amount scattered clouds
Temperature 25°C
Dew point 21°C
Humidity 78%
QNH 1006 hPa
Weather condition n/a

Airport 10km 5.4 nm
10,000 m
32,808.399 ft
south of Tartagal, Salta, Argentina. The airport is named after the nearby town of General Enrique Mosconi.

Note: beware confusion with General Enrique Mosconi International Airport (SAVC) which serves the southern city of Comodoro Rivadavia.

Climatology

Humid Subtropical climate (Köppen climate classification Cwa).

Maps

Terrain

Loading map...

Airport Layout

Loading map...


Accidents & Serious Incidents at or in vicinity of SAST

None on SKYbrary